Oscoda, MI

11:15 AM EST on December 09, 2019 (GMT -0500)
Oscoda-Wurtsmith

Weather History for KOSC - October, 2019

Change the Weather History Date:

Tuesday, October 1, 2019

  Actual Average Record
Temperature  
Mean Temperature 68 °F -  
Max Temperature 78 °F 61 °F 86 °F (2002)
Min Temperature 58 °F 42 °F 30 °F (2003)
Cooling Degree Days 3    
Growing Degree Days 18 (Base 50)    
Moisture  
Dew Point 67 °F    
Average Humidity 95    
Maximum Humidity 100    
Minimum Humidity 76    
Precipitation  
Precipitation 0.21 in - - ()
Sea Level Pressure  
Sea Level Pressure 29.89 in    
Wind  
Wind Speed 7 mph (WSW)    
Max Wind Speed 14 mph    
Max Gust Speed 17 mph    
Visibility 8 miles    
Events Rain    
Averages and records for this station are not official NWS values.
T = Trace of Precipitation, MM = Missing Value Source: NWS Daily Summary

Daily Weather History Graph

Daily Weather History Graph

Search for Another Location

Airport or City:

Astronomy

Oct. 01, 2019 Rise Set
Actual Time 7:31 AM EDT 7:14 PM EDT
Civil Twilight 7:02 AM EDT 7:43 PM EDT
Nautical Twilight 6:28 AM EDT 8:17 PM EDT
Astronomical Twilight 5:54 AM EDT 8:51 PM EDT
Moon 10:52 AM EDT (10/1) 9:19 PM EDT (10/1)
Length of Visible Light 12h 41m
Length of Day
11h 43m
Waxing Crescent, 12% of the Moon is Illuminated
Oct 1
Waxing Crescent
Oct 5
First Quarter
Oct 13
Full
Oct 21
Last Quarter
Oct 27
New

Hourly Weather History & Observations

Time (EDT) Temp. Dew Point Humidity Pressure Visibility Wind Dir Wind Speed Gust Speed Precip Events Conditions
12:19 AM 69.4 °F 69.4 °F 100% 29.89 in 7.0 mi SSW 8.1 mph - N/A   Clear
12:37 AM 69.3 °F 69.3 °F 100% 29.89 in 7.0 mi SW 8.1 mph - N/A   Clear
12:55 AM 69.1 °F 69.1 °F 100% 29.89 in 7.0 mi SSW 8.1 mph - N/A   Clear
12:56 AM 69.1 °F 69.1 °F 100% 29.89 in 7.0 mi SSW 8.1 mph - N/A   Clear
1:15 AM 68.9 °F 68.9 °F 100% 29.89 in 5.0 mi SSW 8.1 mph - N/A   Clear
1:35 AM 68.9 °F 68.9 °F 100% 29.89 in 5.0 mi SSW 5.8 mph - N/A   Clear
1:58 AM 68.9 °F 68.9 °F 100% 29.88 in 5.0 mi SSW 5.8 mph - N/A   Clear
2:16 AM 68.2 °F 68.2 °F 100% 29.89 in 4.0 mi SW 4.6 mph - N/A   Scattered Clouds
2:35 AM 67.6 °F 67.6 °F 100% 29.90 in 4.0 mi SW 3.5 mph - N/A   Scattered Clouds
2:36 AM 67.5 °F 67.5 °F 100% 29.90 in 3.0 mi SW 3.5 mph - N/A   Scattered Clouds
2:55 AM 67.1 °F 67.1 °F 100% 29.90 in 0.8 mi Calm Calm - N/A   Mostly Cloudy
2:56 AM 67.3 °F 67.3 °F 100% 29.90 in 0.8 mi Calm Calm - N/A   Mostly Cloudy
3:19 AM 67.1 °F 67.1 °F 100% 29.89 in 1.5 mi South 4.6 mph - N/A   Scattered Clouds
3:37 AM 67.8 °F 67.8 °F 100% 29.88 in 4.0 mi South 4.6 mph - N/A   Clear
3:55 AM 67.6 °F 67.6 °F 100% 29.88 in 4.0 mi South 5.8 mph - N/A   Clear
4:15 AM 68.0 °F 68.0 °F 100% 29.87 in 5.0 mi SSW 6.9 mph - N/A   Clear
4:16 AM 68.2 °F 68.2 °F 100% 29.87 in 5.0 mi SSW 6.9 mph - N/A   Clear
4:35 AM 68.0 °F 68.0 °F 100% 29.87 in 5.0 mi SSW 8.1 mph - N/A   Clear
4:40 AM 68.0 °F 68.0 °F 100% 29.86 in 5.0 mi SSW 8.1 mph - N/A   Clear
4:58 AM 68.0 °F 68.0 °F 100% 29.86 in 5.0 mi SW 8.1 mph - N/A   Clear
5:16 AM 68.4 °F 68.4 °F 100% 29.86 in 7.0 mi SW 9.2 mph - N/A   Clear
5:35 AM 68.9 °F 68.9 °F 100% 29.85 in 7.0 mi SSW 8.1 mph - N/A   Clear
5:55 AM 68.4 °F 68.4 °F 100% 29.85 in 7.0 mi SSW 10.4 mph - N/A   Clear
6:19 AM 68.5 °F 68.5 °F 100% 29.85 in 7.0 mi SSW 9.2 mph - N/A   Clear
6:37 AM 68.5 °F 68.5 °F 100% 29.86 in 7.0 mi SW 5.8 mph - N/A   Scattered Clouds
6:55 AM 68.4 °F 68.4 °F 100% 29.85 in 7.0 mi SSW 5.8 mph - N/A   Scattered Clouds
7:15 AM 68.9 °F 68.9 °F 100% 29.85 in 10.0 mi SSW 4.6 mph - N/A   Clear
7:35 AM 68.9 °F 68.9 °F 100% 29.85 in 7.0 mi SSW 6.9 mph - N/A   Clear
7:40 AM 69.1 °F 69.1 °F 100% 29.84 in 10.0 mi SSW 6.9 mph - N/A   Clear
7:58 AM 68.4 °F 68.4 °F 100% 29.86 in 7.0 mi SW 6.9 mph - N/A   Clear
8:16 AM 68.9 °F 68.9 °F 100% 29.85 in 7.0 mi SSW 8.1 mph - N/A   Clear
8:35 AM 69.8 °F 69.8 °F 100% 29.85 in 10.0 mi SSW 9.2 mph - N/A   Clear
8:55 AM 70.7 °F 69.8 °F 97% 29.86 in 10.0 mi SSW 10.4 mph - N/A   Clear
8:56 AM 70.7 °F 69.8 °F 97% 29.86 in 10.0 mi SW 9.2 mph - N/A   Clear
9:18 AM 72.1 °F 69.6 °F 92% 29.86 in 10.0 mi SW 10.4 mph - N/A   Clear
9:37 AM 73.9 °F 69.8 °F 87% 29.87 in 10.0 mi WSW 13.8 mph 17.3 mph N/A   Mostly Cloudy
9:55 AM 74.8 °F 69.8 °F 84% 29.86 in 10.0 mi WSW 11.5 mph - N/A   Scattered Clouds
10:15 AM 75.2 °F 69.3 °F 82% 29.86 in 10.0 mi WSW 11.5 mph - N/A   Mostly Cloudy
10:16 AM 75.2 °F 69.3 °F 82% 29.86 in 10.0 mi WSW 11.5 mph - N/A   Mostly Cloudy
10:35 AM 76.1 °F 69.6 °F 80% 29.86 in 10.0 mi West 9.2 mph - N/A   Overcast
10:40 AM 76.5 °F 69.8 °F 80% 29.86 in 10.0 mi West 8.1 mph - N/A   Overcast
10:58 AM 77.9 °F 70.2 °F 77% 29.86 in 10.0 mi West 10.4 mph - N/A   Mostly Cloudy
11:16 AM 78.1 °F 70.0 °F 76% 29.86 in 10.0 mi West 6.9 mph - N/A   Scattered Clouds
11:35 AM 77.9 °F 70.2 °F 77% 29.87 in 10.0 mi WSW 11.5 mph - N/A   Scattered Clouds
11:55 AM 78.1 °F 70.2 °F 77% 29.88 in 10.0 mi West 10.4 mph - N/A   Clear
11:56 AM 78.1 °F 70.2 °F 77% 29.88 in 10.0 mi West 10.4 mph - N/A   Scattered Clouds
12:19 PM 77.0 °F 71.1 °F 82% 29.89 in 10.0 mi WSW 11.5 mph - N/A Rain Light Rain
12:37 PM 76.8 °F 70.9 °F 82% 29.88 in 10.0 mi WSW 4.6 mph - N/A Rain Light Rain
12:55 PM 76.5 °F 71.4 °F 84% 29.89 in 10.0 mi WSW 4.6 mph - N/A Rain Light Rain
1:15 PM 76.1 °F 72.3 °F 88% 29.89 in 10.0 mi WSW 5.8 mph - N/A Rain Light Rain
1:16 PM 76.1 °F 72.5 °F 89% 29.89 in 10.0 mi WSW 6.9 mph - N/A Rain Light Rain
1:35 PM 75.6 °F 72.9 °F 91% 29.89 in 10.0 mi West 4.6 mph - N/A Rain Light Rain
1:58 PM 76.1 °F 73.2 °F 91% 29.89 in 10.0 mi West 6.9 mph - 0.01 in Rain Light Rain
2:16 PM 76.6 °F 73.0 °F 89% 29.89 in 10.0 mi West 6.9 mph - N/A Rain Light Rain
2:35 PM 76.5 °F 72.9 °F 89% 29.89 in 10.0 mi WSW 8.1 mph - N/A Rain Light Rain
2:36 PM 76.5 °F 72.9 °F 89% 29.89 in 10.0 mi WSW 8.1 mph - N/A Rain Light Rain
2:55 PM 76.6 °F 72.3 °F 86% 29.90 in 10.0 mi West 9.2 mph - N/A   Light Drizzle
3:19 PM 75.6 °F 72.3 °F 90% 29.91 in 10.0 mi WSW 10.4 mph - N/A Rain Light Rain
3:37 PM 75.7 °F 72.5 °F 90% 29.89 in 10.0 mi West 3.5 mph - N/A   Overcast
3:55 PM 77.2 °F 73.4 °F 88% 29.89 in 10.0 mi West 3.5 mph - N/A   Scattered Clouds
3:56 PM 77.2 °F 73.4 °F 88% 29.89 in 10.0 mi West 3.5 mph - N/A   Mostly Cloudy
4:15 PM 76.6 °F 72.5 °F 87% 29.90 in 10.0 mi WSW 8.1 mph - N/A   Mostly Cloudy
4:35 PM 76.5 °F 72.0 °F 86% 29.89 in 10.0 mi SW 3.5 mph - N/A   Mostly Cloudy
4:40 PM 74.3 °F 68.7 °F 83% 29.89 in 10.0 mi East 8.1 mph - N/A   Mostly Cloudy
4:58 PM 69.8 °F 69.4 °F 99% 29.88 in 10.0 mi East 4.6 mph - N/A   Mostly Cloudy
5:16 PM 68.5 °F 68.4 °F 99% 29.88 in 7.0 mi NE 5.8 mph - N/A   Overcast
5:35 PM 68.9 °F 68.7 °F 99% 29.88 in 10.0 mi NE 8.1 mph - N/A   Overcast
5:36 PM 68.9 °F 68.7 °F 99% 29.88 in 10.0 mi NE 8.1 mph - N/A   Overcast
5:55 PM 68.0 °F 67.6 °F 99% 29.88 in 10.0 mi NE 5.8 mph - N/A   Overcast
6:19 PM 66.6 °F 66.6 °F 100% 29.88 in 10.0 mi NE 9.2 mph - N/A   Overcast
6:37 PM 66.0 °F 66.0 °F 100% 29.90 in 10.0 mi ENE 4.6 mph - N/A   Overcast
6:55 PM 65.3 °F 65.3 °F 100% 29.88 in 10.0 mi East 6.9 mph - N/A   Overcast
7:15 PM 63.5 °F 63.5 °F 100% 29.90 in 10.0 mi NE 9.2 mph - N/A   Overcast
7:16 PM 63.5 °F 63.5 °F 100% 29.90 in 10.0 mi NE 8.1 mph - N/A   Overcast
7:35 PM 62.6 °F 62.6 °F 100% 29.90 in 10.0 mi ENE 10.4 mph - N/A   Overcast
7:58 PM 62.1 °F 62.1 °F 100% 29.92 in 7.0 mi ENE 4.6 mph - N/A   Overcast
8:16 PM 61.7 °F 61.7 °F 100% 29.92 in 7.0 mi ENE 10.4 mph - 0.02 in Rain Light Rain
8:35 PM 60.8 °F 60.8 °F 100% 29.91 in 7.0 mi ENE 8.1 mph - 0.03 in Rain Light Rain
8:36 PM 60.8 °F 60.8 °F 100% 29.91 in 7.0 mi ENE 8.1 mph - 0.03 in Rain Light Rain
8:55 PM 60.1 °F 60.1 °F 100% 29.90 in 7.0 mi East 9.2 mph - 0.05 in Rain Light Rain
8:56 PM 60.1 °F 60.1 °F 100% 29.90 in 7.0 mi East 8.1 mph - 0.05 in Rain Light Rain
9:19 PM 59.9 °F 59.9 °F 100% 29.93 in 7.0 mi NE 6.9 mph - 0.02 in Rain Light Rain
9:37 PM 60.1 °F 60.1 °F 100% 29.92 in 4.0 mi NNE 4.6 mph - 0.06 in Rain Rain
9:55 PM 60.6 °F 60.6 °F 100% 29.93 in 5.0 mi North 5.8 mph - 0.07 in Rain Heavy Rain
9:56 PM 60.8 °F 60.8 °F 100% 29.93 in 5.0 mi North 8.1 mph - 0.07 in Rain Heavy Rain
10:15 PM 60.8 °F 60.6 °F 99% 29.93 in 10.0 mi North 9.2 mph - N/A Rain Rain
10:16 PM 60.8 °F 60.6 °F 99% 29.93 in 10.0 mi North 9.2 mph - N/A Rain Rain
10:35 PM 60.3 °F 60.3 °F 100% 29.93 in 7.0 mi North 5.8 mph - 0.02 in Rain Light Rain
10:58 PM 60.3 °F 60.3 °F 100% 29.94 in 10.0 mi NNW 3.5 mph - 0.02 in   Overcast
11:16 PM 59.9 °F 59.0 °F 97% 29.95 in 10.0 mi North 6.9 mph - N/A Rain Light Rain
11:35 PM 59.2 °F 58.6 °F 98% 29.95 in 10.0 mi North 8.1 mph - 0.02 in Rain Rain
11:36 PM 59.2 °F 58.6 °F 98% 29.95 in 10.0 mi North 8.1 mph - 0.02 in Rain Rain
11:55 PM 58.3 °F 57.7 °F 98% 29.94 in 7.0 mi North 10.4 mph - 0.06 in Rain Rain
11:56 PM 58.3 °F 57.9 °F 99% 29.94 in 10.0 mi North 11.5 mph - 0.06 in Rain Rain